Latest Weather Observations for Padthaway

IDS60801

Issued at 7:01 pm CST Friday 1 July 2016 (issued every 30 minutes, with the page automatically refreshed every 10 minutes)

About weather observations | Map of weather stations | Latest weather observations for SA | Other Formats
Station Details ID: 026100 Name: PADTHAWAY SOUTH Lat: -36.65 Lon: 140.52 Height: 37.0 m
Data from the previous 72 hours. | See also: Recent months at Padthaway
Date/Time
CST
Temp
°C
App
Temp
°C
Dew
Point
°C
Rel
Hum
%
Delta-T
°C
Wind Press
QNH
hPa
Press
MSL
hPa
Rain since
9am
mm
Dir  Spd
km/h
Gust
km/h
Spd
kts
Gust
kts
01/07:00pm 11.4 8.9 9.8 90 0.8 NW 13 20 7 11 - - 0.2
01/06:30pm 11.5 9.0 9.8 89 0.9 NNW 13 17 7 9 - - 0.2
01/06:00pm 11.6 9.8 9.5 87 1.1 NNW 9 13 5 7 - - 0.2
01/05:30pm 11.9 9.5 10.1 89 0.9 NW 13 17 7 9 - - 0.2
01/05:00pm 12.2 9.9 10.3 88 1.0 WNW 13 22 7 12 - - 0.2
01/04:30pm 12.0 10.8 10.4 90 0.8 WNW 7 11 4 6 - - 0.2
01/04:00pm 12.0 10.0 10.1 88 1.0 W 11 15 6 8 - - 0.2
01/03:30pm 11.9 8.2 10.3 90 0.8 WNW 20 30 11 16 - - 0.2
01/03:00pm 13.1 9.5 9.9 81 1.6 W 19 28 10 15 - - 0.2
01/02:30pm 13.7 10.0 9.4 75 2.2 W 19 28 10 15 - - 0.0
01/02:00pm 12.9 9.4 10.3 84 1.3 W 19 28 10 15 - - 0.0
01/01:30pm 12.9 10.1 9.9 82 1.5 W 15 19 8 10 - - 0.0
01/01:00pm 11.7 8.2 10.3 91 0.7 W 19 24 10 13 - - 0.0
01/12:30pm 12.9 10.3 9.4 79 1.8 NW 13 19 7 10 - - 0.0
01/12:00pm 12.5 9.3 8.4 76 2.0 NW 15 20 8 11 - - 0.0
01/11:30am 12.0 9.2 8.7 80 1.6 WNW 13 19 7 10 - - 0.0
01/11:00am 11.3 9.0 8.9 85 1.2 NW 11 13 6 7 - - 0.0
01/10:30am 10.5 8.4 8.3 86 1.1 WNW 9 13 5 7 - - 0.0
01/10:00am 10.0 7.8 7.8 86 1.1 NW 9 11 5 6 - - 0.0
01/09:30am 9.7 7.7 7.1 84 1.2 NW 7 11 4 6 - - 0.0
01/09:00am 8.3 5.7 6.1 86 1.0 N 9 11 5 6 - - 3.8
01/08:30am 6.0 4.8 4.6 91 0.6 CALM 0 0 0 0 - - 3.8
01/08:00am 5.0 2.3 3.7 91 0.5 NNE 7 9 4 5 - - 3.8
01/07:30am 4.5 1.8 2.7 88 0.7 NW 6 9 3 5 - - 3.8
01/07:00am 4.7 2.5 3.2 90 0.6 NNW 4 9 2 5 - - 3.8
01/06:30am 4.2 1.4 3.0 92 0.5 NNW 7 9 4 5 - - 3.8
01/06:00am 4.5 3.0 3.0 90 0.6 CALM 0 0 0 0 - - 3.8
01/05:30am 4.9 2.8 3.7 92 0.5 NNW 4 7 2 4 - - 3.8
01/05:00am 4.3 1.5 3.4 94 0.4 NNW 7 9 4 5 - - 3.8
01/04:30am 4.0 0.5 3.3 95 0.3 NNW 11 13 6 7 - - 3.8
01/04:00am 2.7 0.9 1.4 91 0.5 CALM 0 0 0 0 - - 3.8
01/03:30am 3.5 0.5 2.0 90 0.6 NW 7 9 4 5 - - 3.8
01/03:00am 4.5 1.6 2.5 87 0.8 WNW 7 9 4 5 - - 3.8
01/02:30am 5.6 2.4 3.1 84 1.0 WNW 9 13 5 7 - - 3.8
01/02:00am 6.9 3.8 3.7 80 1.4 WSW 9 13 5 7 - - 3.8
01/01:30am 8.1 4.8 4.3 77 1.7 SW 11 15 6 8 - - 3.8
01/01:00am 7.9 4.2 4.5 79 1.5 SW 13 19 7 10 - - 3.8
01/12:30am 6.4 3.4 3.9 84 1.1 W 9 13 5 7 - - 3.8
01/12:00am 6.3 3.2 3.8 84 1.1 W 9 11 5 6 - - 3.8
 
Date/Time
CST
Temp
°C
App
Temp
°C
Dew
Point
°C
Rel
Hum
%
Delta-T
°C
Wind Press
QNH
hPa
Press
MSL
hPa
Rain since
9am
mm
Dir  Spd
km/h
Gust
km/h
Spd
kts
Gust
kts
30/11:30pm 6.7 3.3 4.2 84 1.1 W 11 15 6 8 - - 3.8
30/11:00pm 6.7 3.3 4.2 84 1.1 WSW 11 15 6 8 - - 3.8
30/10:30pm 7.6 4.3 4.7 82 1.3 W 11 19 6 10 - - 3.8
30/10:00pm 7.9 3.6 5.2 83 1.2 WSW 17 22 9 12 - - 3.8
30/09:30pm 8.2 3.5 5.0 80 1.4 W 19 26 10 14 - - 3.8
30/09:00pm 8.4 3.7 5.0 79 1.5 WSW 19 26 10 14 - - 3.8
30/08:30pm 8.8 4.1 5.2 78 1.6 W 19 28 10 15 - - 3.8
30/08:00pm 9.1 3.2 5.8 80 1.5 W 26 39 14 21 - - 3.8
30/07:30pm 8.5 3.7 5.4 81 1.4 W 20 33 11 18 - - 3.8
30/07:00pm 9.0 4.1 5.2 77 1.7 W 20 32 11 17 - - 3.6
30/06:30pm 8.6 4.0 5.7 82 1.3 WSW 19 28 10 15 - - 3.6
30/06:00pm 8.2 4.7 5.5 83 1.2 W 13 19 7 10 - - 3.4
30/05:30pm 7.8 4.1 4.7 81 1.4 WNW 13 17 7 9 - - 3.4
30/05:00pm 8.3 3.9 4.7 78 1.6 W 17 26 9 14 - - 3.4
30/04:30pm 8.4 3.0 4.6 77 1.7 W 22 32 12 17 - - 3.4
30/04:15pm 9.2 2.3 4.4 72 2.1 W 30 50 16 27 - - 3.2
30/04:00pm 10.1 4.6 4.0 66 2.7 W 22 33 12 18 - - 3.2
30/03:30pm 10.2 4.3 5.6 73 2.1 WSW 26 39 14 21 - - 3.2
30/03:00pm 11.2 5.2 3.5 59 3.4 W 24 37 13 20 - - 3.2
30/02:30pm 10.2 6.1 6.2 76 1.9 W 17 24 9 13 - - 3.2
30/02:04pm 9.2 2.2 5.8 79 1.6 WSW 32 50 17 27 - - 3.2
30/02:00pm 9.4 2.1 5.4 76 1.8 WSW 33 50 18 27 - - 3.2
30/01:41pm 11.7 4.5 4.9 63 3.1 W 32 50 17 27 - - 3.0
30/01:30pm 11.7 4.5 4.9 63 3.1 W 32 48 17 26 - - 3.0
30/01:00pm 10.8 4.4 6.9 77 1.9 W 30 48 16 26 - - 3.0
30/12:56pm 10.3 4.1 6.1 75 1.9 W 28 48 15 26 - - 3.0
30/12:30pm 10.8 6.4 7.5 80 1.6 WNW 20 30 11 16 - - 3.0
30/12:00pm 10.2 5.4 7.4 83 1.3 WNW 22 32 12 17 - - 3.0
30/11:30am 9.3 4.5 7.4 88 0.9 W 22 32 12 17 - - 3.0
30/11:08am 10.1 4.4 8.4 89 0.8 W 28 48 15 26 - - 2.4
30/11:00am 10.2 6.1 8.8 91 0.7 W 20 32 11 17 - - 2.0
30/10:30am 10.5 5.3 8.8 89 0.8 WNW 26 39 14 21 - - 1.0
30/10:00am 10.8 6.4 8.9 88 0.9 NW 22 35 12 19 - - 0.4
30/09:30am 11.4 5.8 8.8 84 1.3 NNW 28 39 15 21 - - 0.0
30/09:00am 10.7 4.1 7.9 83 1.4 NW 32 46 17 25 - - 1.0
30/08:30am 10.8 4.0 6.9 77 1.9 NNW 32 46 17 25 - - 0.8
30/08:00am 10.2 3.1 6.4 77 1.8 NNW 33 48 18 26 - - 0.8
30/07:30am 9.7 3.5 6.1 78 1.7 NNW 28 41 15 22 - - 0.8
30/07:00am 9.8 3.1 5.8 76 1.8 N 30 41 16 22 - - 0.8
30/06:30am 9.6 3.7 5.8 77 1.7 N 26 37 14 20 - - 0.8
30/06:00am 9.6 2.9 5.6 76 1.8 N 30 41 16 22 - - 0.8
30/05:30am 9.4 3.5 5.8 78 1.6 N 26 35 14 19 - - 0.8
30/05:00am 9.3 3.0 5.9 79 1.6 NNW 28 39 15 21 - - 0.8
30/04:30am 9.2 3.3 5.9 80 1.5 N 26 35 14 19 - - 0.8
30/04:00am 9.2 3.4 6.1 81 1.4 N 26 37 14 20 - - 0.8
30/03:30am 9.0 3.2 6.1 82 1.3 N 26 39 14 21 - - 0.6
30/03:00am 9.2 3.0 6.3 82 1.3 N 28 41 15 22 - - 0.4
30/02:30am 9.7 4.1 5.5 75 1.9 N 24 35 13 19 - - 0.2
30/02:00am 9.7 4.1 5.5 75 1.9 N 24 37 13 20 - - 0.2
30/01:30am 10.3 4.2 4.7 68 2.5 N 26 37 14 20 - - 0.0
30/01:00am 10.3 4.1 4.5 67 2.6 N 26 37 14 20 - - 0.0
30/12:30am 10.4 4.2 4.3 66 2.7 N 26 41 14 22 - - 0.0
30/12:00am 10.5 3.9 4.4 66 2.7 N 28 41 15 22 - - 0.0
 
Date/Time
CST
Temp
°C
App
Temp
°C
Dew
Point
°C
Rel
Hum
%
Delta-T
°C
Wind Press
QNH
hPa
Press
MSL
hPa
Rain since
9am
mm
Dir  Spd
km/h
Gust
km/h
Spd
kts
Gust
kts
29/11:30pm 10.7 4.1 4.2 64 2.9 N 28 41 15 22 - - 0.0
29/11:00pm 10.7 4.9 4.6 66 2.7 N 24 35 13 19 - - 0.0
29/10:30pm 10.7 5.0 4.8 67 2.7 N 24 35 13 19 - - 0.0
29/10:00pm 10.9 5.1 4.6 65 2.8 N 24 33 13 18 - - 0.0
29/09:30pm 11.2 3.9 4.7 64 2.9 N 32 46 17 25 - - 0.0
29/09:00pm 11.1 4.2 4.8 65 2.9 N 30 41 16 22 - - 0.0
29/08:30pm 10.9 4.8 4.6 65 2.8 N 26 41 14 22 - - 0.0
29/08:00pm 10.9 5.1 4.6 65 2.8 N 24 35 13 19 - - 0.0
29/07:30pm 11.2 5.0 4.2 62 3.1 N 26 35 14 19 - - 0.0
29/07:00pm 11.5 6.4 4.3 61 3.2 N 20 32 11 17 - - 0.0
29/06:30pm 11.9 5.6 3.9 58 3.6 N 26 41 14 22 - - 0.0
29/06:00pm 12.0 5.7 3.8 57 3.7 N 26 39 14 21 - - 0.0
29/05:30pm 12.1 5.8 3.9 57 3.7 N 26 37 14 20 - - 0.0
29/05:00pm 12.2 5.9 3.9 57 3.7 N 26 37 14 20 - - 0.0
29/04:30pm 12.6 7.0 3.6 54 4.0 N 22 33 12 18 - - 0.0
29/04:00pm 12.8 6.8 3.5 53 4.2 N 24 35 13 19 - - 0.0
29/03:30pm 13.2 6.1 3.3 51 4.4 N 30 43 16 23 - - 0.0
29/03:00pm 13.4 6.8 4.0 53 4.3 NNW 28 41 15 22 - - 0.0
29/02:30pm 13.4 6.1 4.3 54 4.2 N 32 44 17 24 - - 0.0
29/02:00pm 13.6 6.4 5.0 56 4.0 NNW 32 46 17 25 - - 0.0
29/01:44pm 13.8 7.3 4.7 54 4.2 NNW 28 48 15 26 - - 0.0
29/01:30pm 14.0 6.6 4.9 54 4.2 NNW 33 46 18 25 - - 0.0
29/01:00pm 14.0 7.6 5.1 55 4.2 N 28 39 15 21 - - 0.0
29/12:30pm 13.7 8.2 5.8 59 3.7 N 24 35 13 19 - - 0.0
29/12:00pm 13.2 7.3 5.9 61 3.5 N 26 39 14 21 - - 0.0
29/11:30am 12.7 7.1 5.4 61 3.4 N 24 35 13 19 - - 0.0
29/11:00am 12.6 7.7 5.1 60 3.5 N 20 28 11 15 - - 0.0
29/10:30am 11.4 6.6 5.5 67 2.7 N 20 28 11 15 - - 0.0
29/10:00am 11.3 7.2 6.0 70 2.5 N 17 22 9 12 - - 0.0
29/09:30am 10.2 7.2 5.8 74 2.0 N 11 17 6 9 - - 0.0
29/09:00am 9.1 4.9 5.5 78 1.6 NNE 17 24 9 13 - - 0.0
29/08:30am 8.6 5.2 5.7 82 1.3 N 13 17 7 9 - - 0.0
29/08:00am 7.8 5.1 5.6 86 1.0 N 9 13 5 7 - - 0.0
29/07:30am 7.3 4.2 5.4 88 0.8 N 11 15 6 8 - - 0.0
29/07:00am 7.1 3.9 5.3 88 0.8 N 11 15 6 8 - - 0.0
29/06:30am 6.6 3.7 4.8 88 0.8 N 9 13 5 7 - - 0.0
29/06:00am 6.6 3.0 4.8 88 0.8 N 13 17 7 9 - - 0.0
29/05:30am 7.3 4.1 5.3 87 0.9 N 11 15 6 8 - - 0.0
29/05:00am 7.3 3.8 5.4 88 0.8 N 13 15 7 8 - - 0.0
29/04:30am 7.5 4.0 5.6 88 0.9 N 13 17 7 9 - - 0.0
29/04:00am 7.2 4.0 5.3 88 0.8 N 11 13 6 7 - - 0.0
29/03:30am 7.6 4.1 5.6 87 0.9 N 13 17 7 9 - - 0.0
29/03:00am 7.6 4.1 5.4 86 1.0 N 13 15 7 8 - - 0.0
29/02:30am 7.5 4.3 5.3 86 1.0 N 11 15 6 8 - - 0.0
29/02:00am 7.7 4.2 5.5 86 1.0 N 13 15 7 8 - - 0.0
29/01:30am 6.8 3.4 6.1 95 0.3 N 13 15 7 8 - - 0.0
29/01:00am 5.0 1.6 3.8 92 0.5 N 11 11 6 6 - - 0.0
29/12:30am 5.7 2.4 4.3 91 0.6 N 11 11 6 6 - - 0.0
29/12:00am 6.6 4.2 5.1 90 0.7 N 7 9 4 5 - - 0.0
 
Date/Time
CST
Temp
°C
App
Temp
°C
Dew
Point
°C
Rel
Hum
%
Delta-T
°C
Wind Press
QNH
hPa
Press
MSL
hPa
Rain since
9am
mm
Dir  Spd
km/h
Gust
km/h
Spd
kts
Gust
kts
28/11:30pm 7.4 4.7 5.7 89 0.8 N 9 11 5 6 - - 0.0
28/11:00pm 8.0 5.0 6.1 88 0.9 N 11 13 6 7 - - 0.0
28/10:30pm 8.7 5.7 6.2 84 1.1 N 11 13 6 7 - - 0.0
28/10:00pm 9.8 6.6 6.7 81 1.5 NNW 13 17 7 9 - - 0.0
28/09:30pm 10.1 6.5 6.8 80 1.6 NNW 15 19 8 10 - - 0.0
28/09:00pm 10.5 7.0 7.2 80 1.6 NNW 15 17 8 9 - - 0.0
28/08:30pm 10.9 7.2 7.8 81 1.5 NNW 17 20 9 11 - - 0.0
28/08:00pm 10.4 7.4 7.6 83 1.3 NNW 13 17 7 9 - - 0.0
28/07:30pm 10.3 7.3 7.7 84 1.3 N 13 17 7 9 - - 0.0

Other Formats:

Comma delimited format used in spreadsheet applications
http://www.bom.gov.au/fwo/IDS60801/IDS60801.95823.axf

JavaScript Object Notation format (JSON) in row-major order
http://www.bom.gov.au/fwo/IDS60801/IDS60801.95823.json